Time;durP1;ratioP1;P1;durP2;ratioP2;P2;SDS_P1;SDS_P2;PMS_P1;PMS_P2;Temp;Humidity;BMP_temperature;BMP_pressure;BME280_temperature;BME280_humidity;BME280_pressure;Samples;Min_cycle;Max_cycle;Signal;HPM_P1;HPM_P2
2022/07/20 00:02:11;;;;;;;7.00;5.50;;;23.90;96.80;;;;;;5052775;28;20472;-74
2022/07/20 00:04:38;;;;;;;6.77;5.57;;;23.90;97.20;;;;;;5052694;28;20517;-74
2022/07/20 00:07:05;;;;;;;7.80;5.97;;;23.80;97.50;;;;;;5052793;28;20430;-75
2022/07/20 00:12:17;;;;;;;7.13;5.80;;;23.80;97.70;;;;;;5052799;28;20876;-74
2022/07/20 00:14:44;;;;;;;6.40;5.80;;;23.80;98.00;;;;;;5052261;28;20503;-74
2022/07/20 00:17:11;;;;;;;6.50;5.90;;;23.80;98.10;;;;;;5052527;28;20457;-73
2022/07/20 00:19:37;;;;;;;7.83;6.40;;;23.80;98.50;;;;;;5052704;28;20544;-74
2022/07/20 00:22:04;;;;;;;6.93;6.33;;;23.80;98.80;;;;;;5052274;28;21003;-74
2022/07/20 00:24:31;;;;;;;6.43;5.93;;;23.80;99.00;;;;;;5052595;28;20474;-74
2022/07/20 00:26:58;;;;;;;6.67;5.80;;;23.70;99.20;;;;;;5052637;28;20856;-74
2022/07/20 00:29:26;;;;;;;7.03;5.90;;;23.70;99.40;;;;;;5052513;28;20979;-73
2022/07/20 00:31:53;;;;;;;9.00;6.63;;;23.70;99.70;;;;;;5052674;28;20460;-74
2022/07/20 00:34:19;;;;;;;8.73;6.20;;;23.70;99.90;;;;;;5055330;28;20452;-75
2022/07/20 00:36:46;;;;;;;6.00;5.40;;;23.70;99.90;;;;;;5056567;28;20445;-75
2022/07/20 00:39:13;;;;;;;5.77;5.07;;;23.60;99.90;;;;;;5056533;28;20532;-73
2022/07/20 00:41:40;;;;;;;10.57;6.63;;;23.60;99.90;;;;;;5056245;28;21026;-74
2022/07/20 00:44:09;;;;;;;7.23;6.53;;;23.50;99.90;;;;;;5056285;28;20445;-74
2022/07/20 00:46:39;;;;;;;8.17;6.37;;;23.50;99.90;;;;;;5056212;28;21063;-73
2022/07/20 00:49:07;;;;;;;6.30;5.70;;;23.50;99.90;;;;;;5056427;28;20430;-73
2022/07/20 00:51:34;;;;;;;8.20;6.67;;;23.40;99.90;;;;;;5057142;28;20441;-74
2022/07/20 00:54:01;;;;;;;6.43;5.83;;;23.40;99.90;;;;;;5056447;28;20848;-74
2022/07/20 00:56:28;;;;;;;8.30;5.90;;;23.40;99.90;;;;;;5056169;28;21004;-74
2022/07/20 00:58:55;;;;;;;7.30;6.10;;;23.30;99.90;;;;;;5056211;28;20445;-74
2022/07/20 01:01:21;;;;;;;5.87;5.20;;;23.30;99.90;;;;;;5055933;28;21019;-74
2022/07/20 01:03:50;;;;;;;6.40;5.80;;;23.30;99.90;;;;;;5056702;28;20453;-74
2022/07/20 01:06:16;;;;;;;6.33;5.30;;;23.30;99.90;;;;;;5056348;28;20996;-74
2022/07/20 01:08:43;;;;;;;7.87;6.00;;;23.20;99.90;;;;;;5056246;28;20441;-74
2022/07/20 01:11:10;;;;;;;6.20;5.60;;;23.20;99.90;;;;;;5055990;28;20445;-74
2022/07/20 01:13:37;;;;;;;9.50;5.63;;;23.20;99.90;;;;;;5055574;28;20519;-74
2022/07/20 01:16:04;;;;;;;10.00;6.13;;;23.20;99.90;;;;;;5055905;28;20465;-74
2022/07/20 01:18:31;;;;;;;6.90;6.23;;;23.10;99.90;;;;;;5055735;28;20445;-74
2022/07/20 01:21:01;;;;;;;10.00;7.07;;;23.10;99.90;;;;;;5055956;28;20488;-74
2022/07/20 01:23:29;;;;;;;6.83;6.23;;;23.10;99.90;;;;;;5055619;28;20433;-73
2022/07/20 01:25:56;;;;;;;8.80;6.40;;;23.10;99.90;;;;;;5055775;28;20866;-74
2022/07/20 01:28:23;;;;;;;7.50;6.43;;;23.00;99.90;;;;;;5055435;28;20979;-73
2022/07/20 01:30:50;;;;;;;7.40;6.70;;;23.00;99.90;;;;;;5055397;28;20937;-73
2022/07/20 01:33:17;;;;;;;7.30;6.60;;;23.00;99.90;;;;;;5055740;28;20744;-73
2022/07/20 01:35:44;;;;;;;8.87;6.60;;;23.00;99.90;;;;;;5055324;28;20465;-73
2022/07/20 01:38:12;;;;;;;6.10;5.60;;;23.00;99.90;;;;;;5055415;28;20445;-74
2022/07/20 01:40:39;;;;;;;8.23;6.27;;;22.90;99.90;;;;;;5055008;28;20956;-74
2022/07/20 01:43:06;;;;;;;7.20;6.27;;;22.80;99.90;;;;;;5055318;28;20448;-73
2022/07/20 01:45:33;;;;;;;7.27;6.57;;;22.80;99.90;;;;;;5053970;28;21037;-73
2022/07/20 01:47:59;;;;;;;8.03;6.37;;;22.70;99.90;;;;;;5055399;28;20503;-74
2022/07/20 01:50:26;;;;;;;6.80;5.90;;;22.70;99.90;;;;;;5055326;28;20776;-74
2022/07/20 01:52:53;;;;;;;6.27;5.57;;;22.60;99.90;;;;;;5055460;28;20854;-73
2022/07/20 01:55:21;;;;;;;9.23;6.23;;;22.60;99.90;;;;;;5055133;28;20504;-74
2022/07/20 01:57:48;;;;;;;8.03;6.00;;;22.60;99.90;;;;;;5055094;28;20441;-74
2022/07/20 02:00:15;;;;;;;10.00;6.60;;;22.60;99.90;;;;;;5055071;28;20448;-74
2022/07/20 02:02:42;;;;;;;7.50;6.80;;;22.60;99.90;;;;;;5055025;28;20442;-74
2022/07/20 02:05:09;;;;;;;7.40;6.60;;;22.50;99.90;;;;;;5054925;28;20968;-74
2022/07/20 02:07:37;;;;;;;7.60;6.77;;;22.50;99.90;;;;;;5054952;28;20450;-74
2022/07/20 02:10:05;;;;;;;7.00;6.30;;;22.50;99.90;;;;;;5054872;28;20442;-73
2022/07/20 02:12:34;;;;;;;7.73;6.63;;;22.50;99.90;;;;;;5054805;28;20437;-74
2022/07/20 02:15:01;;;;;;;8.50;7.23;;;22.50;99.90;;;;;;5054701;28;20469;-73
2022/07/20 02:17:27;;;;;;;7.20;6.33;;;22.40;99.90;;;;;;5054906;28;20757;-73
2022/07/20 02:19:54;;;;;;;7.47;6.77;;;22.40;99.90;;;;;;5054408;28;20450;-74
2022/07/20 02:22:21;;;;;;;6.00;5.50;;;22.30;99.90;;;;;;5054423;28;20487;-74
2022/07/20 02:24:47;;;;;;;8.37;6.77;;;22.30;99.90;;;;;;5054628;28;20519;-75
2022/07/20 02:27:14;;;;;;;6.83;6.13;;;22.30;99.90;;;;;;5054568;28;20804;-74
2022/07/20 02:29:42;;;;;;;6.50;5.70;;;22.30;99.90;;;;;;5054387;28;20940;-73
2022/07/20 02:32:09;;;;;;;8.20;6.33;;;22.20;99.90;;;;;;5054495;28;20471;-73
2022/07/20 02:34:36;;;;;;;11.93;6.83;;;22.20;99.90;;;;;;5054400;28;20473;-75
2022/07/20 02:37:03;;;;;;;9.70;6.27;;;22.20;99.90;;;;;;5054511;28;20452;-74
2022/07/20 02:39:30;;;;;;;9.33;6.70;;;22.20;99.90;;;;;;5054375;28;20449;-74
2022/07/20 02:41:56;;;;;;;7.37;6.17;;;22.10;99.90;;;;;;5055017;28;20874;-74
2022/07/20 02:44:23;;;;;;;11.57;7.30;;;21.90;99.90;;;;;;5053984;28;20438;-74
2022/07/20 02:46:51;;;;;;;8.47;7.67;;;21.90;99.90;;;;;;5054164;28;20438;-74
2022/07/20 02:49:18;;;;;;;8.80;6.47;;;21.90;99.90;;;;;;5054231;28;20449;-74
2022/07/20 02:51:44;;;;;;;7.03;6.33;;;21.80;99.90;;;;;;5053775;28;20941;-74
2022/07/20 02:54:11;;;;;;;8.00;7.13;;;21.80;99.90;;;;;;5053889;28;20446;-74
2022/07/20 02:56:38;;;;;;;8.07;7.27;;;21.70;99.90;;;;;;5053302;28;20990;-74
2022/07/20 02:59:04;;;;;;;7.97;7.20;;;21.70;99.90;;;;;;5053878;28;20453;-74
2022/07/20 03:01:31;;;;;;;8.60;7.00;;;21.70;99.90;;;;;;5054075;28;20481;-74
2022/07/20 03:04:00;;;;;;;8.20;7.00;;;21.60;99.90;;;;;;5053748;28;20457;-74
2022/07/20 03:06:27;;;;;;;8.23;7.00;;;21.60;99.90;;;;;;5054165;28;20971;-74
2022/07/20 03:08:55;;;;;;;10.17;7.10;;;21.60;99.90;;;;;;5054250;28;20507;-74
2022/07/20 03:11:22;;;;;;;7.93;6.73;;;21.60;99.90;;;;;;5054269;28;20780;-74
2022/07/20 03:13:50;;;;;;;8.17;6.53;;;21.60;99.90;;;;;;5054789;28;20530;-74
2022/07/20 03:16:18;;;;;;;8.27;7.30;;;21.50;99.90;;;;;;5055426;28;20568;-74
2022/07/20 03:18:47;;;;;;;8.50;6.90;;;21.50;99.90;;;;;;5055664;28;20540;-74
2022/07/20 03:21:16;;;;;;;7.47;6.70;;;21.50;99.90;;;;;;5056635;28;20481;-74
2022/07/20 03:23:44;;;;;;;7.73;7.03;;;21.60;99.90;;;;;;5055905;28;20853;-74
2022/07/20 03:26:12;;;;;;;9.83;7.70;;;21.60;99.90;;;;;;5055086;28;20462;-74
2022/07/20 03:28:40;;;;;;;8.47;7.63;;;21.60;99.90;;;;;;5055307;28;20438;-73
2022/07/20 03:31:08;;;;;;;7.40;6.70;;;21.60;99.90;;;;;;5054996;28;20430;-73
2022/07/20 03:33:36;;;;;;;9.03;6.77;;;21.60;99.90;;;;;;5053912;28;20453;-74
2022/07/20 03:36:04;;;;;;;8.77;7.73;;;21.60;99.90;;;;;;5054551;28;20899;-74
2022/07/20 03:38:33;;;;;;;15.73;8.20;;;21.60;99.90;;;;;;5053940;28;20457;-74
2022/07/20 03:41:02;;;;;;;9.00;7.20;;;21.60;99.90;;;;;;5053985;28;20445;-74
2022/07/20 03:43:29;;;;;;;7.90;7.20;;;21.60;99.90;;;;;;5054426;28;20457;-74
2022/07/20 03:45:57;;;;;;;7.80;6.50;;;21.60;99.90;;;;;;5054020;28;20504;-74
2022/07/20 03:48:25;;;;;;;8.67;7.77;;;21.60;99.90;;;;;;5054176;28;20829;-74
2022/07/20 03:50:53;;;;;;;9.60;7.70;;;21.50;99.90;;;;;;5053961;28;20512;-74
2022/07/20 03:53:21;;;;;;;8.80;8.00;;;21.50;99.90;;;;;;5054388;28;20480;-74
2022/07/20 03:55:51;;;;;;;8.13;6.77;;;21.50;99.90;;;;;;5054360;28;20568;-74
2022/07/20 03:58:19;;;;;;;8.90;7.33;;;21.50;99.90;;;;;;5054255;28;20461;-74
2022/07/20 04:00:47;;;;;;;8.97;8.07;;;21.50;99.90;;;;;;5053940;28;20531;-74
2022/07/20 04:03:15;;;;;;;8.13;7.33;;;21.50;99.90;;;;;;5053723;28;20485;-74
2022/07/20 04:05:42;;;;;;;8.17;7.33;;;21.50;99.90;;;;;;5054002;28;20477;-74
2022/07/20 04:08:10;;;;;;;17.40;8.40;;;21.50;99.90;;;;;;5053546;28;20440;-74
2022/07/20 04:10:37;;;;;;;10.53;9.30;;;21.50;99.90;;;;;;5053874;28;20495;-75
2022/07/20 04:13:06;;;;;;;8.93;8.13;;;21.50;99.90;;;;;;5052693;28;20813;-74
2022/07/20 04:15:33;;;;;;;11.50;8.63;;;21.50;99.90;;;;;;5052661;28;20470;-74
2022/07/20 04:17:59;;;;;;;9.57;8.57;;;21.50;99.90;;;;;;5052747;28;20453;-75
2022/07/20 04:20:26;;;;;;;12.33;7.77;;;21.50;99.90;;;;;;5052679;28;20445;-74
2022/07/20 04:22:53;;;;;;;9.97;7.33;;;21.50;99.90;;;;;;5052593;28;20499;-74
2022/07/20 04:25:22;;;;;;;10.27;7.70;;;21.50;99.90;;;;;;5052254;28;20469;-74
2022/07/20 04:27:49;;;;;;;9.57;8.47;;;21.60;99.90;;;;;;5052661;28;20446;-74
2022/07/20 04:30:18;;;;;;;10.10;9.10;;;21.60;99.90;;;;;;5052542;28;20458;-74
2022/07/20 04:32:45;;;;;;;9.27;8.27;;;21.60;99.90;;;;;;5052394;28;20812;-74
2022/07/20 04:35:13;;;;;;;11.37;7.43;;;21.60;99.90;;;;;;5052455;28;20465;-73
2022/07/20 04:37:39;;;;;;;17.87;12.83;;;21.70;99.90;;;;;;5053017;28;20450;-73
2022/07/20 04:40:07;;;;;;;9.80;8.80;;;21.70;99.90;;;;;;5052582;28;20797;-73
2022/07/20 04:42:34;;;;;;;11.40;8.90;;;21.60;99.90;;;;;;5052530;28;21011;-73
2022/07/20 04:45:01;;;;;;;9.07;8.17;;;21.70;99.90;;;;;;5075433;22;20887;-77
2022/07/20 04:47:29;;;;;;;12.50;8.50;;;21.80;99.90;;;;;;5052676;28;20460;-77
2022/07/20 04:49:55;;;;;;;13.30;8.13;;;21.80;99.90;;;;;;5053003;28;20445;-77
2022/07/20 04:52:22;;;;;;;11.30;8.53;;;21.90;99.90;;;;;;5052681;28;20437;-77
2022/07/20 04:54:49;;;;;;;9.27;8.37;;;21.90;99.90;;;;;;5053612;28;20808;-77
2022/07/20 04:57:15;;;;;;;11.90;9.40;;;22.00;99.90;;;;;;5052817;28;20449;-77
2022/07/20 04:59:42;;;;;;;9.20;8.27;;;22.00;99.90;;;;;;5052365;28;20438;-77
2022/07/20 05:02:09;;;;;;;9.20;7.87;;;22.10;99.90;;;;;;5052591;28;20508;-77
2022/07/20 05:04:37;;;;;;;10.87;8.77;;;22.00;99.90;;;;;;5053639;28;20460;-76
2022/07/20 05:07:04;;;;;;;12.37;9.20;;;22.20;99.90;;;;;;5052473;28;20967;-77
2022/07/20 05:09:31;;;;;;;14.43;8.40;;;22.30;99.90;;;;;;5052925;28;20882;-77
2022/07/20 05:11:58;;;;;;;11.10;7.50;;;22.40;99.90;;;;;;5053190;28;20450;-77
2022/07/20 05:14:25;;;;;;;9.80;8.77;;;22.40;99.90;;;;;;5052685;28;20817;-77
2022/07/20 05:16:51;;;;;;;19.20;9.70;;;22.50;99.90;;;;;;5052646;28;20450;-77
2022/07/20 05:19:18;;;;;;;14.10;10.30;;;22.50;99.90;;;;;;5053418;28;20974;-77
2022/07/20 05:21:46;;;;;;;10.70;9.60;;;22.60;99.90;;;;;;5056311;28;20481;-77
2022/07/20 05:24:13;;;;;;;11.90;10.00;;;22.60;99.90;;;;;;5056236;28;20446;-77
2022/07/20 05:26:39;;;;;;;25.60;18.40;;;22.70;99.90;;;;;;5056165;28;20465;-76
2022/07/20 05:29:07;;;;;;;19.43;11.93;;;22.70;99.90;;;;;;5056505;28;20457;-76
2022/07/20 05:31:33;;;;;;;10.53;9.60;;;22.80;99.90;;;;;;5055702;28;20456;-76
2022/07/20 05:34:00;;;;;;;12.33;8.73;;;22.90;99.90;;;;;;5056005;28;20456;-76
2022/07/20 05:36:27;;;;;;;12.93;8.70;;;22.90;99.90;;;;;;5055978;28;20465;-77
2022/07/20 05:38:55;;;;;;;13.60;9.03;;;23.00;99.90;;;;;;5056244;28;20525;-77
2022/07/20 05:41:22;;;;;;;11.50;8.00;;;23.00;99.90;;;;;;5056039;28;20449;-77
2022/07/20 05:43:48;;;;;;;9.83;8.90;;;23.10;99.90;;;;;;5055488;28;20485;-77
2022/07/20 05:46:15;;;;;;;11.73;8.67;;;23.10;99.90;;;;;;5055713;28;20477;-76
2022/07/20 05:48:42;;;;;;;9.20;8.13;;;23.20;99.90;;;;;;5055997;28;20829;-77
2022/07/20 05:51:09;;;;;;;9.67;8.73;;;23.20;99.90;;;;;;5055663;28;20454;-77
2022/07/20 05:53:35;;;;;;;10.50;9.20;;;23.30;99.90;;;;;;5056497;28;20797;-76
2022/07/20 05:56:05;;;;;;;9.60;8.30;;;23.30;99.90;;;;;;5055517;28;20564;-76
2022/07/20 05:58:31;;;;;;;10.40;8.87;;;23.40;99.90;;;;;;5055554;28;20445;-77
2022/07/20 06:00:58;;;;;;;9.87;8.50;;;23.50;99.90;;;;;;5055483;28;20835;-77
2022/07/20 06:03:25;;;;;;;9.50;8.60;;;23.70;99.90;;;;;;5054970;28;21043;-76
2022/07/20 06:05:51;;;;;;;16.60;9.00;;;23.70;99.90;;;;;;5055471;28;20469;-76
2022/07/20 06:08:18;;;;;;;11.00;10.00;;;23.80;99.90;;;;;;5055149;28;20441;-77
2022/07/20 06:10:45;;;;;;;11.53;9.37;;;23.90;99.90;;;;;;5055760;28;20495;-77
2022/07/20 06:13:13;;;;;;;15.63;12.37;;;24.00;99.90;;;;;;5055319;28;20438;-77
2022/07/20 06:15:40;;;;;;;10.57;9.50;;;24.10;99.90;;;;;;5055345;28;20465;-77
2022/07/20 06:18:07;;;;;;;13.63;10.60;;;24.20;99.90;;;;;;5055337;28;20840;-77
2022/07/20 06:20:35;;;;;;;12.13;9.40;;;;;;;;;;5055323;28;20446;-77
2022/07/20 06:23:02;;;;;;;15.20;10.13;;;24.30;99.90;;;;;;5054872;28;20481;-77
2022/07/20 06:25:29;;;;;;;10.50;8.67;;;24.40;99.90;;;;;;5054897;28;20497;-77
2022/07/20 06:27:58;;;;;;;10.70;9.80;;;24.50;99.90;;;;;;5054603;28;20446;-77
2022/07/20 06:30:26;;;;;;;13.10;9.90;;;24.60;99.90;;;;;;5054733;28;20507;-77
2022/07/20 06:32:53;;;;;;;15.50;8.93;;;24.60;99.90;;;;;;5054656;28;20442;-77
2022/07/20 06:35:21;;;;;;;14.17;9.07;;;24.70;99.90;;;;;;5054693;28;20466;-77
2022/07/20 06:37:48;;;;;;;11.53;9.83;;;24.80;99.90;;;;;;5054492;28;20454;-77
2022/07/20 06:40:15;;;;;;;10.90;9.53;;;24.90;99.90;;;;;;5054398;28;21022;-77
2022/07/20 06:42:41;;;;;;;10.80;9.50;;;24.90;99.90;;;;;;5054418;28;20481;-77
2022/07/20 06:45:09;;;;;;;11.23;8.77;;;25.00;99.90;;;;;;5054344;28;20856;-76
2022/07/20 06:47:37;;;;;;;9.50;8.40;;;25.00;99.90;;;;;;5054704;28;20790;-77
2022/07/20 06:50:04;;;;;;;10.33;9.23;;;25.00;99.90;;;;;;5054314;28;20446;-76
2022/07/20 06:52:31;;;;;;;12.97;10.07;;;25.10;99.90;;;;;;5054468;28;20487;-76
2022/07/20 06:54:58;;;;;;;11.47;8.77;;;25.10;99.90;;;;;;5054906;28;20472;-76
2022/07/20 06:57:25;;;;;;;9.60;8.63;;;25.20;99.90;;;;;;5055395;28;20449;-76
2022/07/20 06:59:51;;;;;;;11.70;10.50;;;25.30;99.90;;;;;;5054418;28;20452;-77
2022/07/20 07:02:18;;;;;;;11.20;9.17;;;25.30;99.90;;;;;;5054011;28;20495;-76
2022/07/20 07:04:48;;;;;;;11.37;9.37;;;25.60;99.90;;;;;;5054278;28;20456;-77
2022/07/20 07:07:14;;;;;;;12.00;9.10;;;25.40;99.90;;;;;;5054386;28;20884;-76
2022/07/20 07:09:41;;;;;;;9.43;8.43;;;25.50;99.90;;;;;;5055038;28;20456;-76
2022/07/20 07:12:08;;;;;;;10.53;8.90;;;25.60;99.90;;;;;;5054178;28;20987;-77
2022/07/20 07:14:36;;;;;;;9.30;8.40;;;25.60;99.90;;;;;;5054354;28;20449;-76
2022/07/20 07:17:02;;;;;;;10.60;8.80;;;25.70;99.90;;;;;;5054051;28;20472;-77
2022/07/20 07:19:29;;;;;;;9.47;8.57;;;25.80;99.90;;;;;;5054361;28;20805;-76
2022/07/20 07:21:57;;;;;;;12.20;9.03;;;25.80;99.90;;;;;;5054369;28;20472;-76
2022/07/20 07:24:25;;;;;;;10.47;9.47;;;25.90;99.90;;;;;;5054480;28;20469;-77
2022/07/20 07:26:52;;;;;;;12.77;9.40;;;26.00;99.90;;;;;;5054410;28;20971;-77
2022/07/20 07:29:19;;;;;;;10.67;9.00;;;26.10;99.90;;;;;;5053500;28;20449;-74
2022/07/20 07:31:46;;;;;;;11.43;9.23;;;26.10;99.90;;;;;;5053665;28;20461;-77
2022/07/20 07:34:13;;;;;;;15.30;9.40;;;26.10;99.90;;;;;;5053865;28;20557;-76
2022/07/20 07:36:40;;;;;;;10.03;8.90;;;26.20;99.90;;;;;;5053594;28;20470;-76
2022/07/20 07:39:08;;;;;;;9.07;8.17;;;26.30;99.90;;;;;;5053764;28;20442;-76
2022/07/20 07:41:35;;;;;;;10.47;8.83;;;26.40;99.90;;;;;;5053779;28;20445;-77
2022/07/20 07:44:02;;;;;;;15.63;8.47;;;26.50;99.90;;;;;;5052952;28;20540;-77
2022/07/20 07:46:29;;;;;;;12.57;8.83;;;26.50;99.90;;;;;;5053119;28;20500;-76
2022/07/20 07:48:56;;;;;;;13.40;8.60;;;26.60;99.90;;;;;;5053869;28;20452;-76
2022/07/20 07:51:23;;;;;;;9.90;8.70;;;26.70;99.90;;;;;;5054288;28;20449;-77
2022/07/20 07:53:49;;;;;;;13.27;8.70;;;26.70;99.90;;;;;;5054081;28;20446;-77
2022/07/20 07:56:18;;;;;;;14.63;8.90;;;26.80;99.90;;;;;;5053592;28;20466;-76
2022/07/20 07:58:45;;;;;;;16.73;9.00;;;26.90;99.90;;;;;;5053370;28;20489;-76
2022/07/20 08:01:12;;;;;;;15.13;8.70;;;26.90;99.90;;;;;;5055163;28;20449;-76
2022/07/20 08:03:39;;;;;;;9.93;8.40;;;27.10;99.90;;;;;;5053868;28;20477;-76
2022/07/20 08:06:06;;;;;;;13.47;11.33;;;27.20;99.90;;;;;;5052815;28;20474;-77
2022/07/20 08:08:32;;;;;;;22.77;19.30;;;27.30;99.90;;;;;;5053445;28;20446;-76
2022/07/20 08:11:00;;;;;;;31.77;27.60;;;27.40;99.90;;;;;;5052955;28;20479;-77
2022/07/20 08:13:28;;;;;;;32.77;27.83;;;27.50;99.90;;;;;;5053837;28;20448;-75
2022/07/20 08:15:55;;;;;;;29.47;26.17;;;27.60;99.90;;;;;;5053003;28;20474;-76
2022/07/20 08:18:22;;;;;;;24.77;22.17;;;27.60;99.90;;;;;;5052979;28;20451;-76
2022/07/20 08:20:50;;;;;;;50.87;45.40;;;27.70;99.90;;;;;;5052907;28;20441;-77
2022/07/20 08:23:16;;;;;;;30.13;26.87;;;27.80;99.90;;;;;;5052810;28;20477;-77
2022/07/20 08:25:43;;;;;;;26.60;22.33;;;27.90;99.90;;;;;;5053078;28;20504;-76
2022/07/20 08:28:12;;;;;;;24.53;22.17;;;27.90;99.90;;;;;;5052717;28;20438;-76
2022/07/20 08:30:42;;;;;;;21.87;16.67;;;28.00;99.90;;;;;;5052820;28;20445;-76
2022/07/20 08:33:09;;;;;;;23.00;20.00;;;28.10;99.90;;;;;;5052825;28;20426;-76
2022/07/20 08:35:37;;;;;;;44.23;39.43;;;28.20;99.90;;;;;;5053163;28;20457;-77
2022/07/20 08:38:04;;;;;;;42.40;34.00;;;28.20;99.90;;;;;;5053191;28;20460;-76
2022/07/20 08:40:31;;;;;;;41.90;30.90;;;28.30;99.90;;;;;;5053121;28;20449;-76
2022/07/20 08:42:59;;;;;;;37.47;33.40;;;28.30;99.90;;;;;;5052860;28;20488;-77
2022/07/20 08:45:25;;;;;;;27.73;24.73;;;28.30;99.90;;;;;;5052471;28;20496;-76
2022/07/20 08:47:54;;;;;;;28.60;25.50;;;28.30;99.90;;;;;;5053047;28;20446;-77
2022/07/20 08:50:25;;;;;;;22.73;18.87;;;28.40;99.90;;;;;;5053089;28;20446;-78
2022/07/20 08:52:52;;;;;;;12.50;11.20;;;28.50;99.90;;;;;;5052949;28;20816;-77
2022/07/20 08:55:20;;;;;;;14.73;10.90;;;28.50;99.90;;;;;;5055577;28;20469;-77
2022/07/20 08:57:47;;;;;;;11.50;9.63;;;28.60;99.90;;;;;;5057286;28;20454;-77
2022/07/20 09:00:15;;;;;;;11.30;9.27;;;28.80;99.90;;;;;;5057027;28;20503;-78
2022/07/20 09:02:55;;;;;;;8.80;7.37;;;28.80;99.90;;;;;;5056748;28;20446;-77
2022/07/20 09:05:23;;;;;;;9.13;8.03;;;28.80;99.90;;;;;;5056726;28;20465;-77
2022/07/20 09:07:52;;;;;;;9.30;6.70;;;28.80;99.90;;;;;;5056399;28;20460;-78
2022/07/20 09:10:21;;;;;;;8.67;6.63;;;29.00;99.90;;;;;;5056400;28;20952;-77
2022/07/20 09:12:54;;;;;;;9.93;7.30;;;29.10;99.90;;;;;;5056543;28;20449;-77
2022/07/20 09:15:31;;;;;;;10.07;6.90;;;29.10;99.90;;;;;;5056744;28;20492;-76
2022/07/20 09:18:11;;;;;;;10.70;6.30;;;29.10;99.90;;;;;;5056841;28;20448;-77
2022/07/20 09:20:39;;;;;;;7.63;6.50;;;29.20;99.90;;;;;;5057286;28;20429;-76
2022/07/20 09:23:08;;;;;;;7.47;6.30;;;29.20;99.90;;;;;;5056742;28;20485;-77
2022/07/20 09:25:35;;;;;;;10.20;6.20;;;29.30;99.90;;;;;;5057560;28;20465;-77
2022/07/20 09:28:02;;;;;;;7.13;6.40;;;29.50;99.90;;;;;;5056488;28;20445;-76
2022/07/20 09:30:28;;;;;;;8.40;6.77;;;29.70;99.90;;;;;;5056113;28;20456;-77
2022/07/20 09:32:59;;;;;;;7.63;6.63;;;29.90;99.90;;;;;;5056615;28;20445;-77
2022/07/20 09:35:30;;;;;;;8.60;7.20;;;29.90;99.90;;;;;;5056237;28;20477;-77
2022/07/20 09:37:58;;;;;;;11.07;7.23;;;29.90;99.90;;;;;;5056489;28;20456;-76
2022/07/20 09:40:25;;;;;;;7.10;6.40;;;29.90;99.90;;;;;;5056195;28;20451;-76
2022/07/20 09:42:53;;;;;;;10.43;6.20;;;29.90;99.60;;;;;;5056452;28;21011;-76
2022/07/20 09:45:25;;;;;;;7.53;6.10;;;29.90;99.20;;;;;;5055835;28;20871;-76
2022/07/20 09:48:07;;;;;;;7.80;6.80;;;29.90;99.10;;;;;;5056534;28;20430;-76
2022/07/20 09:50:37;;;;;;;7.13;5.50;;;29.80;98.80;;;;;;5055923;28;20468;-77
2022/07/20 09:53:05;;;;;;;18.00;13.80;;;29.80;97.30;;;;;;5056110;28;20430;-76
2022/07/20 09:55:33;;;;;;;13.33;11.53;;;30.20;95.30;;;;;;5055848;28;20469;-76
2022/07/20 09:58:00;;;;;;;15.47;13.37;;;30.30;96.70;;;;;;5056012;28;20812;-76
2022/07/20 10:00:28;;;;;;;16.00;14.47;;;30.40;95.80;;;;;;5055696;28;20450;-77
2022/07/20 10:02:58;;;;;;;14.30;12.90;;;30.40;95.40;;;;;;5055543;28;20449;-77
2022/07/20 10:05:28;;;;;;;10.10;6.70;;;30.40;95.80;;;;;;5054914;28;20470;-76
2022/07/20 10:07:57;;;;;;;7.20;5.47;;;30.50;94.70;;;;;;5055182;28;20441;-77
2022/07/20 10:10:24;;;;;;;6.23;5.30;;;30.50;94.00;;;;;;5055299;28;20450;-76
2022/07/20 10:12:50;;;;;;;8.83;5.93;;;30.60;93.40;;;;;;5055764;28;20454;-77
2022/07/20 10:15:23;;;;;;;13.40;5.83;;;30.80;92.90;;;;;;5056109;28;20832;-77
2022/07/20 10:17:50;;;;;;;7.00;5.90;;;31.00;93.00;;;;;;5055191;28;20426;-78
2022/07/20 10:20:32;;;;;;;11.27;8.23;;;31.20;91.50;;;;;;5055467;28;20537;-77
2022/07/20 10:23:33;;;;;;;6.93;5.83;;;31.20;90.90;;;;;;5056644;28;20479;-77
2022/07/20 10:26:01;;;;;;;8.13;5.60;;;31.30;89.30;;;;;;5046621;28;20474;-77
2022/07/20 10:28:34;;;;;;;12.30;5.70;;;31.30;91.30;;;;;;5056097;28;20445;-77
2022/07/20 10:31:05;;;;;;;5.20;4.80;;;31.40;90.00;;;;;;5055313;28;20441;-77
2022/07/20 10:33:34;;;;;;;10.03;6.13;;;31.50;90.30;;;;;;5055280;28;20426;-77
2022/07/20 10:38:57;;;;;;;8.10;5.13;;;31.70;87.80;;;;;;5055201;28;20397;-77
2022/07/20 10:41:36;;;;;;;8.77;5.73;;;31.80;86.00;;;;;;5054979;28;20511;-77
2022/07/20 10:44:28;;;;;;;6.60;5.93;;;31.90;85.70;;;;;;5054922;28;20481;-76
2022/07/20 10:46:55;;;;;;;6.50;5.57;;;32.00;78.20;;;;;;5079557;22;20485;-75
2022/07/20 10:49:55;;;;;;;8.20;6.20;;;32.10;82.30;;;;;;5054646;28;20476;-75
2022/07/20 10:52:30;;;;;;;6.20;5.60;;;32.10;81.40;;;;;;5043986;28;20457;-75
2022/07/20 10:54:56;;;;;;;7.10;6.40;;;32.00;78.80;;;;;;5053957;28;20445;-77
2022/07/20 10:57:25;;;;;;;6.33;5.33;;;32.00;78.40;;;;;;5053989;28;20457;-74
2022/07/20 11:00:11;;;;;;;8.20;5.07;;;31.90;77.00;;;;;;5054146;28;20824;-75
2022/07/20 11:02:38;;;;;;;5.37;4.87;;;31.90;67.10;;;;;;5054478;28;20429;-75
2022/07/20 11:05:06;;;;;;;5.50;4.70;;;32.10;76.80;;;;;;5053723;28;20848;-75
2022/07/20 11:07:35;;;;;;;6.80;6.20;;;32.10;77.40;;;;;;5053509;28;20951;-74
2022/07/20 11:10:18;;;;;;;6.63;5.93;;;32.10;76.80;;;;;;5053990;28;20456;-75
2022/07/20 11:12:55;;;;;;;7.40;6.63;;;32.00;75.50;;;;;;5054055;28;20457;-75
2022/07/20 11:15:22;;;;;;;9.53;6.10;;;32.00;74.70;;;;;;5053662;28;20552;-74
2022/07/20 11:17:49;;;;;;;6.27;5.20;;;32.00;75.10;;;;;;5053388;28;20441;-74
2022/07/20 11:20:17;;;;;;;5.67;4.30;;;32.00;72.40;;;;;;5053660;28;20446;-74
2022/07/20 11:22:44;;;;;;;5.13;4.63;;;32.00;72.30;;;;;;5053270;28;20453;-74
2022/07/20 11:25:11;;;;;;;7.80;4.53;;;32.10;70.80;;;;;;5053448;28;20485;-75
2022/07/20 11:27:38;;;;;;;6.03;4.97;;;32.20;69.80;;;;;;5053551;28;20454;-75
2022/07/20 11:30:08;;;;;;;8.70;5.47;;;32.20;68.00;;;;;;5053582;28;20445;-75
2022/07/20 11:32:35;;;;;;;7.77;5.03;;;32.30;72.40;;;;;;5053692;28;20457;-75
2022/07/20 11:35:05;;;;;;;6.40;5.40;;;32.60;69.60;;;;;;5053486;28;20446;-75
2022/07/20 11:37:32;;;;;;;13.77;5.97;;;32.30;70.10;;;;;;5053499;28;20456;-75
2022/07/20 11:39:58;;;;;;;5.70;5.20;;;32.30;67.70;;;;;;5052981;28;20454;-75
2022/07/20 11:42:25;;;;;;;7.37;4.77;;;32.40;70.70;;;;;;5053111;28;20448;-74
2022/07/20 11:45:00;;;;;;;5.83;5.33;;;32.50;66.60;;;;;;5052841;28;20488;-74
2022/07/20 11:47:28;;;;;;;6.20;4.40;;;32.50;64.40;;;;;;5052813;28;20507;-74
2022/07/20 11:50:08;;;;;;;8.10;4.50;;;32.60;63.30;;;;;;5052809;28;20449;-74
2022/07/20 11:52:40;;;;;;;8.83;5.03;;;32.80;67.50;;;;;;5052542;28;20445;-74
2022/07/20 11:55:08;;;;;;;5.70;4.93;;;32.60;62.80;;;;;;5052810;28;20445;-74
2022/07/20 11:57:36;;;;;;;6.43;4.60;;;32.90;63.60;;;;;;5052964;28;20453;-75
2022/07/20 12:00:04;;;;;;;5.97;5.40;;;33.00;66.40;;;;;;5052963;28;20477;-75
2022/07/20 12:02:32;;;;;;;5.70;4.50;;;33.00;63.70;;;;;;5052982;28;20450;-75
2022/07/20 12:04:59;;;;;;;4.77;4.37;;;33.20;66.00;;;;;;5052538;28;20482;-75
2022/07/20 12:10:24;;;;;;;17.60;13.10;;;32.90;64.30;;;;;;5053089;28;20492;-75
2022/07/20 12:13:01;;;;;;;6.17;5.23;;;32.90;63.50;;;;;;5052773;28;20430;-75
2022/07/20 12:15:28;;;;;;;6.43;5.67;;;32.90;64.70;;;;;;5053085;28;20468;-75
2022/07/20 12:17:56;;;;;;;7.77;6.10;;;32.90;65.60;;;;;;5052577;28;20881;-75
2022/07/20 12:20:24;;;;;;;6.50;5.87;;;33.00;62.50;;;;;;5052648;28;20446;-75
2022/07/20 12:22:53;;;;;;;6.70;6.10;;;32.90;61.20;;;;;;5053458;28;20468;-75
2022/07/20 12:25:20;;;;;;;11.03;8.27;;;33.00;60.80;;;;;;5052332;28;20486;-74
2022/07/20 12:27:47;;;;;;;5.50;5.00;;;33.00;62.20;;;;;;5052547;28;20449;-75
2022/07/20 12:30:27;;;;;;;6.50;5.00;;;33.20;62.20;;;;;;5058404;28;20445;-75
2022/07/20 12:33:07;;;;;;;5.97;5.33;;;33.30;63.70;;;;;;5059553;28;20440;-74
2022/07/20 12:35:34;;;;;;;4.77;4.37;;;33.50;62.80;;;;;;5059122;28;20980;-76
2022/07/20 12:38:01;;;;;;;8.03;7.33;;;33.60;60.40;;;;;;5059277;28;20454;-74
2022/07/20 12:40:37;;;;;;;10.33;7.03;;;33.50;61.40;;;;;;5059396;28;20445;-75
2022/07/20 12:43:06;;;;;;;5.80;5.30;;;33.30;59.90;;;;;;5059384;28;20433;-75
2022/07/20 12:45:33;;;;;;;11.77;10.60;;;33.20;60.10;;;;;;5060509;28;20524;-74
2022/07/20 12:47:59;;;;;;;8.20;5.63;;;33.10;59.40;;;;;;5060399;28;20453;-74
2022/07/20 12:50:27;;;;;;;8.60;6.30;;;33.20;59.40;;;;;;5060815;28;20457;-76
2022/07/20 12:52:54;;;;;;;8.33;6.53;;;33.10;54.50;;;;;;5059158;28;20450;-75
2022/07/20 12:55:21;;;;;;;18.63;15.53;;;33.00;58.70;;;;;;5059070;28;20790;-76